Time;durP1;ratioP1;P1;durP2;ratioP2;P2;SDS_P1;SDS_P2;PMS_P1;PMS_P2;Temp;Humidity;BMP_temperature;BMP_pressure;BME280_temperature;BME280_humidity;BME280_pressure;Samples;Min_cycle;Max_cycle;Signal;HPM_P1;HPM_P2
2021/06/09 00:02:41;;;;;;;4.28;3.90;;;13.50;99.90;;;;;;4805762;29;20077;-96
2021/06/09 00:05:12;;;;;;;7.10;6.40;;;13.40;99.90;;;;;;4809602;29;20389;-96
2021/06/09 00:07:39;;;;;;;6.22;5.45;;;13.40;99.90;;;;;;4781159;29;20051;-96
2021/06/09 00:10:14;;;;;;;6.20;5.20;;;13.30;99.90;;;;;;4789227;29;20062;-96
2021/06/09 00:12:48;;;;;;;6.85;3.40;;;13.30;99.90;;;;;;4793212;29;20063;-95
2021/06/09 00:15:15;;;;;;;3.45;3.20;;;13.20;99.90;;;;;;4776871;29;20052;-96
2021/06/09 00:25:35;;;;;;;6.15;3.33;;;13.20;99.90;;;;;;4734320;30;20149;-96
2021/06/09 00:47:20;;;;;;;3.47;3.08;;;12.90;99.90;;;;;;4647062;30;20062;-96
2021/06/09 00:49:47;;;;;;;5.35;3.05;;;12.90;99.90;;;;;;4638522;30;20070;-96
2021/06/09 00:55:46;;;;;;;4.38;3.58;;;12.80;99.90;;;;;;4718910;30;20057;-96
2021/06/09 00:58:53;;;;;;;4.55;3.60;;;12.80;99.90;;;;;;4712737;30;20093;-96
2021/06/09 04:09:06;;;;;;;12.48;9.35;;;12.00;99.90;;;;;;4776534;30;20059;-93
2021/06/09 04:52:44;;;;;;;;;;;;;;;;;;;;;
2021/06/09 04:55:26;;;;;;;13.95;9.65;;;13.00;99.90;;;;;;5217419;24;20065;-96
2021/06/09 05:51:50;;;;;;;6.13;4.93;;;15.10;99.90;;;;;;4734548;30;20060;-92
2021/06/09 05:54:20;;;;;;;5.65;4.72;;;15.20;99.90;;;;;;4751231;29;20061;-95
2021/06/09 05:56:47;;;;;;;9.32;4.35;;;15.30;99.90;;;;;;4790610;29;20059;-93
2021/06/09 06:27:09;;;;;;;;;;;;;;;;;;;;;
2021/06/09 06:37:10;;;;;;;4.45;3.90;;;16.60;99.90;;;;;;4769495;30;20043;-93
2021/06/09 06:47:00;;;;;;;5.22;4.10;;;16.90;99.90;;;;;;4808972;29;20047;-96
2021/06/09 06:57:19;;;;;;;8.50;2.72;;;17.20;99.90;;;;;;4744408;30;20075;-94
2021/06/09 07:00:05;;;;;;;4.38;2.50;;;17.30;99.90;;;;;;4772906;29;20110;-94
2021/06/09 07:02:35;;;;;;;4.15;2.95;;;17.40;99.90;;;;;;4773022;30;20047;-95
2021/06/09 07:09:03;;;;;;;3.35;2.97;;;17.50;99.90;;;;;;4799416;29;20051;-95
2021/06/09 07:12:00;;;;;;;;;;;;;;;;;;;;;
2021/06/09 07:15:00;;;;;;;3.05;2.70;;;17.70;99.90;;;;;;4737663;29;20059;-95
2021/06/09 07:17:38;;;;;;;2.70;2.50;;;17.80;99.90;;;;;;4770463;29;20063;-94
2021/06/09 07:20:22;;;;;;;2.10;2.00;;;17.90;99.90;;;;;;4818121;29;20059;-93
2021/06/09 07:23:03;;;;;;;4.40;1.88;;;18.00;99.90;;;;;;4789631;29;20475;-94
2021/06/09 07:25:52;;;;;;;3.13;1.80;;;18.10;99.90;;;;;;4769823;30;20168;-94
2021/06/09 07:28:28;;;;;;;2.08;1.98;;;18.20;99.90;;;;;;4785330;30;20066;-92
2021/06/09 07:31:38;;;;;;;2.92;1.90;;;18.30;99.90;;;;;;4750043;30;20149;-95
2021/06/09 07:34:06;;;;;;;2.53;2.05;;;18.30;99.90;;;;;;4744764;30;20052;-93
2021/06/09 07:36:46;;;;;;;2.22;1.95;;;18.40;99.90;;;;;;4748680;30;20483;-94
2021/06/09 07:39:17;;;;;;;;;;;18.50;99.90;;;;;;4750683;30;20052;-93
2021/06/09 07:41:44;;;;;;;5.65;2.70;;;18.50;99.90;;;;;;4734641;30;19925;-94
2021/06/09 07:44:12;;;;;;;8.23;2.65;;;18.60;99.90;;;;;;4748718;30;20052;-94
2021/06/09 07:46:59;;;;;;;12.57;2.80;;;18.70;99.90;;;;;;4725437;30;20170;-94
2021/06/09 07:49:27;;;;;;;4.50;2.40;;;18.80;99.90;;;;;;4735817;30;20456;-93
2021/06/09 07:51:54;;;;;;;3.28;2.30;;;18.90;99.90;;;;;;4707518;30;20506;-93
2021/06/09 07:54:21;;;;;;;4.40;2.45;;;19.00;99.90;;;;;;4721847;30;20456;-92
2021/06/09 07:56:48;;;;;;;3.83;2.72;;;19.10;99.90;;;;;;4750300;30;20539;-93
2021/06/09 07:59:14;;;;;;;3.10;2.80;;;19.20;99.90;;;;;;4744638;30;20059;-92
2021/06/09 08:01:43;;;;;;;2.90;2.67;;;19.30;99.90;;;;;;4783861;29;20065;-93
2021/06/09 08:04:11;;;;;;;3.53;1.90;;;19.30;99.90;;;;;;4769159;30;20055;-94
2021/06/09 08:06:38;;;;;;;2.00;1.80;;;19.40;99.90;;;;;;4766662;30;20056;-94
2021/06/09 08:09:05;;;;;;;3.00;2.28;;;19.40;99.90;;;;;;4775599;29;20616;-95
2021/06/09 08:11:32;;;;;;;3.10;2.25;;;19.30;99.90;;;;;;4791782;29;20100;-94
2021/06/09 08:13:58;;;;;;;2.35;2.15;;;19.30;99.90;;;;;;4791665;29;20524;-96
2021/06/09 08:16:28;;;;;;;2.65;2.42;;;19.30;99.90;;;;;;4792630;29;20059;-94
2021/06/09 08:18:55;;;;;;;2.38;2.25;;;19.30;99.90;;;;;;4791365;29;20057;-95
2021/06/09 08:21:25;;;;;;;2.75;2.13;;;19.30;99.90;;;;;;4803850;29;20058;-95
2021/06/09 08:23:53;;;;;;;4.78;2.53;;;19.40;99.90;;;;;;4783979;29;20057;-94
2021/06/09 08:26:23;;;;;;;3.38;2.97;;;19.40;99.90;;;;;;4791779;29;20141;-94
2021/06/09 08:28:51;;;;;;;2.53;2.30;;;19.40;99.90;;;;;;4791511;29;20051;-96
2021/06/09 08:31:24;;;;;;;2.67;2.47;;;19.50;99.90;;;;;;4806291;29;20057;-93
2021/06/09 08:33:52;;;;;;;2.72;2.58;;;19.50;99.90;;;;;;4791369;29;20047;-94
2021/06/09 08:36:19;;;;;;;3.72;2.60;;;19.60;99.90;;;;;;4806241;29;20108;-92
2021/06/09 08:39:00;;;;;;;4.55;2.90;;;19.70;99.90;;;;;;4806198;29;20084;-93
2021/06/09 08:41:31;;;;;;;4.72;2.80;;;19.70;99.90;;;;;;4791417;29;20763;-93
2021/06/09 08:43:59;;;;;;;4.30;2.40;;;19.80;99.90;;;;;;4790832;29;20114;-93
2021/06/09 08:46:26;;;;;;;3.67;2.85;;;20.00;99.90;;;;;;4790691;29;20112;-94
2021/06/09 08:48:56;;;;;;;5.50;2.78;;;20.10;99.90;;;;;;4802231;29;20058;-94
2021/06/09 08:51:32;;;;;;;3.50;3.20;;;20.20;99.90;;;;;;4801855;29;20187;-93
2021/06/09 08:54:00;;;;;;;3.00;2.80;;;20.40;99.90;;;;;;4805202;29;20674;-92
2021/06/09 08:56:27;;;;;;;3.42;2.60;;;20.40;99.90;;;;;;4786010;29;20051;-94
2021/06/09 08:58:58;;;;;;;;;;;20.40;99.90;;;;;;4774300;29;20137;-95
2021/06/09 09:01:31;;;;;;;3.72;3.40;;;20.40;99.90;;;;;;4806178;29;19929;-93
2021/06/09 09:04:01;;;;;;;3.50;3.20;;;20.40;99.90;;;;;;4776315;29;20058;-94
2021/06/09 09:06:30;;;;;;;4.28;3.00;;;20.50;99.90;;;;;;4777250;29;20059;-92
2021/06/09 09:08:56;;;;;;;3.63;2.50;;;20.50;99.90;;;;;;4805213;29;20073;-95
2021/06/09 09:11:24;;;;;;;3.50;3.20;;;20.40;99.90;;;;;;4791732;29;20059;-93
2021/06/09 09:13:50;;;;;;;3.38;3.08;;;20.30;99.90;;;;;;4805849;29;20051;-95
2021/06/09 09:16:17;;;;;;;6.68;3.17;;;20.30;99.90;;;;;;4807111;29;20050;-93
2021/06/09 09:19:12;;;;;;;3.42;3.13;;;20.30;99.90;;;;;;4806088;29;20062;-92
2021/06/09 09:21:43;;;;;;;7.22;3.00;;;20.40;99.90;;;;;;4794355;29;20111;-94
2021/06/09 09:24:13;;;;;;;2.95;2.45;;;20.50;99.90;;;;;;4805148;29;20125;-93
2021/06/09 09:26:50;;;;;;;2.90;2.70;;;20.60;99.90;;;;;;4791049;29;20061;-95
2021/06/09 09:29:20;;;;;;;4.35;3.53;;;20.60;99.90;;;;;;4790718;29;20062;-96
2021/06/09 09:31:49;;;;;;;8.43;3.38;;;20.60;99.90;;;;;;4820624;29;20488;-94
2021/06/09 09:34:42;;;;;;;5.97;4.18;;;20.70;99.90;;;;;;4790498;29;20058;-94
2021/06/09 09:37:20;;;;;;;15.43;4.82;;;20.70;99.90;;;;;;4781711;29;20525;-94
2021/06/09 09:40:05;;;;;;;6.82;4.93;;;20.90;99.90;;;;;;4786054;29;20467;-96
2021/06/09 09:42:34;;;;;;;7.93;5.43;;;21.00;99.90;;;;;;4805756;29;20043;-94
2021/06/09 09:45:26;;;;;;;5.80;4.57;;;21.10;99.90;;;;;;4804744;29;20086;-94
2021/06/09 09:48:08;;;;;;;6.18;5.65;;;21.20;99.90;;;;;;4804891;29;20074;-93
2021/06/09 09:50:50;;;;;;;5.75;4.82;;;21.30;99.90;;;;;;4813819;29;20051;-92
2021/06/09 09:53:26;;;;;;;5.82;4.88;;;21.30;99.90;;;;;;4798591;29;20526;-93
2021/06/09 09:56:11;;;;;;;8.63;5.20;;;21.30;99.90;;;;;;4796759;29;20063;-95
2021/06/09 09:59:15;;;;;;;4.80;4.32;;;21.40;99.90;;;;;;4791975;29;20127;-94
2021/06/09 10:01:51;;;;;;;4.10;3.80;;;21.40;99.90;;;;;;4756996;30;20492;-94
2021/06/09 10:04:28;;;;;;;5.78;3.38;;;21.50;99.90;;;;;;4771384;30;20055;-93
2021/06/09 10:06:56;;;;;;;7.65;3.78;;;21.50;99.90;;;;;;4785555;30;20058;-95
2021/06/09 10:09:29;;;;;;;8.73;4.47;;;21.50;99.90;;;;;;4741425;30;20424;-93
2021/06/09 10:12:03;;;;;;;5.00;4.18;;;21.50;99.90;;;;;;4770664;30;20126;-93
2021/06/09 10:14:36;;;;;;;8.43;4.93;;;21.50;99.90;;;;;;4786984;30;20055;-94
2021/06/09 10:17:07;;;;;;;4.82;4.32;;;21.70;99.90;;;;;;4769128;30;20549;-91
2021/06/09 10:19:36;;;;;;;4.70;3.83;;;21.90;99.90;;;;;;4785297;30;20067;-94
2021/06/09 10:22:06;;;;;;;6.28;4.68;;;22.00;99.90;;;;;;4786018;30;20055;-94
2021/06/09 10:24:44;;;;;;;7.75;4.20;;;22.20;99.90;;;;;;4769195;30;20138;-92
2021/06/09 10:27:11;;;;;;;6.15;3.95;;;22.20;99.90;;;;;;4801585;29;20046;-93
2021/06/09 10:29:37;;;;;;;3.58;3.17;;;22.40;99.90;;;;;;4787932;29;20396;-93
2021/06/09 10:32:09;;;;;;;2.90;2.70;;;22.60;99.90;;;;;;4818823;29;20047;-93
2021/06/09 10:34:36;;;;;;;3.58;2.80;;;23.00;99.90;;;;;;4816195;29;20050;-91
2021/06/09 10:37:09;;;;;;;5.88;3.47;;;23.20;99.90;;;;;;4807667;29;20373;-96
2021/06/09 10:39:38;;;;;;;5.50;3.40;;;23.40;99.90;;;;;;4807860;29;20047;-94
2021/06/09 10:43:19;;;;;;;4.53;3.47;;;23.60;99.90;;;;;;4805886;29;20068;-96
2021/06/09 10:45:48;;;;;;;3.25;2.95;;;23.70;99.90;;;;;;4784012;29;20431;-94
2021/06/09 10:52:18;;;;;;;5.47;4.60;;;23.90;99.90;;;;;;4747404;30;20067;-92
2021/06/09 10:54:45;;;;;;;5.85;4.63;;;23.80;99.90;;;;;;4717538;30;20106;-93
2021/06/09 10:57:11;;;;;;;5.80;3.92;;;23.80;99.90;;;;;;4807344;29;20087;-92
2021/06/09 11:03:28;;;;;;;6.60;4.68;;;24.20;99.90;;;;;;4762986;29;20501;-93
2021/06/09 11:06:03;;;;;;;5.65;5.15;;;24.40;99.90;;;;;;4804296;29;20169;-95
2021/06/09 11:08:30;;;;;;;7.35;5.03;;;24.20;99.90;;;;;;4789301;29;20063;-94
2021/06/09 11:10:58;;;;;;;5.25;4.40;;;24.00;99.90;;;;;;4805003;29;20070;-93
2021/06/09 11:14:17;;;;;;;4.88;4.20;;;24.00;99.90;;;;;;4805081;29;20146;-94
2021/06/09 11:17:15;;;;;;;6.10;4.20;;;24.30;99.90;;;;;;4789687;29;20047;-94
2021/06/09 11:19:47;;;;;;;4.40;3.95;;;24.60;99.90;;;;;;4741666;29;21187;-95
2021/06/09 11:22:25;;;;;;;6.63;4.85;;;24.70;99.90;;;;;;4802685;29;20122;-94
2021/06/09 11:25:16;;;;;;;6.20;4.60;;;24.70;99.90;;;;;;4802801;29;20146;-93
2021/06/09 11:27:56;;;;;;;5.05;4.18;;;24.60;99.90;;;;;;4802747;29;20081;-93
2021/06/09 11:30:30;;;;;;;6.53;5.40;;;24.80;99.90;;;;;;4799036;29;20481;-94
2021/06/09 11:33:02;;;;;;;4.70;4.30;;;25.10;99.90;;;;;;4816948;29;20078;-92
2021/06/09 11:35:50;;;;;;;5.57;4.75;;;25.30;99.90;;;;;;4803089;29;20444;-93
2021/06/09 11:38:54;;;;;;;5.30;3.97;;;25.40;99.90;;;;;;4796808;29;20043;-96
2021/06/09 11:41:24;;;;;;;5.00;4.53;;;25.60;99.90;;;;;;4789791;29;20083;-95
2021/06/09 11:43:55;;;;;;;4.03;3.55;;;25.70;99.90;;;;;;4804580;29;20534;-93
2021/06/09 11:47:02;;;;;;;7.22;3.75;;;25.60;99.90;;;;;;4792633;29;20437;-95
2021/06/09 11:57:24;;;;;;;5.55;3.42;;;26.10;99.90;;;;;;4776419;30;20127;-93
2021/06/09 12:00:59;;;;;;;5.53;3.67;;;26.50;99.90;;;;;;4789154;29;20059;-94
2021/06/09 12:03:27;;;;;;;5.32;3.75;;;27.10;99.90;;;;;;4782506;29;20180;-92
2021/06/09 12:05:53;;;;;;;6.95;3.78;;;27.20;99.90;;;;;;4776875;29;20133;-90
2021/06/09 12:08:20;;;;;;;3.95;3.67;;;27.40;99.90;;;;;;4775849;29;20506;-91
2021/06/09 12:10:59;;;;;;;4.18;3.38;;;27.50;99.90;;;;;;4791345;29;20412;-93
2021/06/09 12:13:29;;;;;;;4.53;3.83;;;27.50;99.90;;;;;;4791453;29;20035;-91
2021/06/09 12:16:04;;;;;;;5.28;4.38;;;27.50;99.90;;;;;;4790842;29;20058;-90
2021/06/09 12:18:32;;;;;;;7.03;4.68;;;27.70;99.90;;;;;;4820240;29;20067;-93
2021/06/09 12:21:08;;;;;;;4.63;3.83;;;27.00;99.90;;;;;;4805641;29;20541;-90
2021/06/09 12:23:34;;;;;;;6.57;3.83;;;26.90;99.90;;;;;;4806033;29;20415;-92
2021/06/09 12:26:04;;;;;;;5.22;3.92;;;26.90;99.90;;;;;;4805949;29;20153;-90
2021/06/09 12:28:30;;;;;;;4.15;3.75;;;27.30;99.90;;;;;;4806076;29;20074;-92
2021/06/09 12:30:59;;;;;;;4.60;3.53;;;27.50;99.90;;;;;;4806165;29;20058;-93
2021/06/09 12:33:49;;;;;;;4.75;3.42;;;27.70;99.90;;;;;;4806110;29;20903;-93
2021/06/09 12:36:16;;;;;;;3.53;3.22;;;27.90;99.90;;;;;;4805443;29;20112;-92
2021/06/09 12:38:45;;;;;;;5.43;4.13;;;28.10;99.90;;;;;;4776347;29;20054;-93
2021/06/09 12:41:11;;;;;;;3.50;3.20;;;28.00;99.90;;;;;;4790248;29;20409;-94
2021/06/09 12:43:39;;;;;;;3.97;3.63;;;28.10;99.90;;;;;;4806141;29;20092;-92
2021/06/09 12:46:25;;;;;;;6.95;4.80;;;28.00;99.90;;;;;;4792787;29;20497;-91
2021/06/09 12:48:51;;;;;;;6.45;3.97;;;27.90;99.90;;;;;;4805359;29;20476;-90
2021/06/09 12:51:18;;;;;;;5.10;4.65;;;27.60;99.90;;;;;;4804792;29;20058;-92
2021/06/09 12:53:44;;;;;;;6.60;3.92;;;27.30;99.90;;;;;;4773100;29;20573;-90
2021/06/09 12:56:10;;;;;;;7.65;4.40;;;27.10;99.90;;;;;;4799750;29;20047;-92
2021/06/09 12:58:38;;;;;;;4.38;3.50;;;27.30;99.90;;;;;;4786506;29;20107;-92
2021/06/09 13:01:15;;;;;;;4.97;4.32;;;27.80;99.90;;;;;;4804704;29;20081;-90
2021/06/09 13:03:45;;;;;;;4.60;3.95;;;28.30;99.90;;;;;;4809997;29;20542;-91
2021/06/09 13:06:19;;;;;;;5.68;3.47;;;28.70;99.90;;;;;;4793964;29;20058;-94
2021/06/09 13:08:57;;;;;;;5.40;3.80;;;29.30;99.20;;;;;;4790376;29;20057;-92
2021/06/09 13:11:28;;;;;;;5.97;3.78;;;29.80;98.60;;;;;;4792797;29;20504;-92
2021/06/09 13:14:07;;;;;;;3.65;3.35;;;30.00;96.80;;;;;;4789584;29;20062;-93
2021/06/09 13:16:39;;;;;;;4.03;3.63;;;30.30;96.20;;;;;;4792167;29;20042;-93
2021/06/09 13:19:10;;;;;;;5.05;3.95;;;30.50;94.50;;;;;;4790201;29;20381;-91
2021/06/09 13:21:37;;;;;;;5.13;4.13;;;30.80;93.10;;;;;;4790075;29;20897;-92
2021/06/09 13:24:35;;;;;;;5.18;4.18;;;31.00;93.90;;;;;;4805444;29;20105;-92
2021/06/09 13:27:09;;;;;;;7.35;3.67;;;31.30;91.50;;;;;;4794335;29;20175;-91
2021/06/09 13:29:44;;;;;;;5.35;3.20;;;31.70;91.00;;;;;;4804611;29;20050;-91
2021/06/09 13:32:20;;;;;;;6.95;4.15;;;31.90;92.20;;;;;;4805461;29;20051;-91
2021/06/09 13:34:59;;;;;;;10.02;4.45;;;32.20;90.70;;;;;;4790650;29;20051;-93
2021/06/09 13:37:33;;;;;;;3.90;3.50;;;32.30;87.00;;;;;;4804190;29;20050;-91
2021/06/09 13:40:10;;;;;;;5.38;4.35;;;32.70;84.80;;;;;;4792167;29;20492;-92
2021/06/09 13:42:39;;;;;;;5.03;4.20;;;32.60;85.30;;;;;;4804279;29;20566;-92
2021/06/09 13:45:16;;;;;;;5.32;3.65;;;32.80;81.80;;;;;;4789580;29;20123;-92
2021/06/09 13:47:48;;;;;;;4.05;3.58;;;32.90;81.20;;;;;;4804801;29;20051;-92
2021/06/09 13:50:19;;;;;;;3.97;3.08;;;32.90;82.40;;;;;;4789548;29;20408;-92
2021/06/09 13:52:46;;;;;;;4.18;3.72;;;33.20;78.30;;;;;;4804361;29;20054;-91
2021/06/09 13:55:15;;;;;;;4.13;3.30;;;33.20;74.80;;;;;;4819345;29;20424;-91
2021/06/09 13:57:49;;;;;;;6.68;3.42;;;33.50;79.70;;;;;;4804158;29;20047;-92
2021/06/09 14:00:20;;;;;;;4.72;3.70;;;33.20;76.10;;;;;;4789539;29;20557;-93
2021/06/09 14:02:48;;;;;;;3.53;2.80;;;33.30;75.80;;;;;;4804369;29;20047;-91
2021/06/09 14:05:21;;;;;;;5.70;3.50;;;33.70;76.60;;;;;;4800736;29;20107;-93
2021/06/09 14:07:52;;;;;;;4.47;3.10;;;33.90;67.90;;;;;;4803045;29;20054;-90
2021/06/09 14:10:25;;;;;;;4.20;3.22;;;34.10;72.60;;;;;;4803456;29;20051;-94
2021/06/09 14:12:52;;;;;;;3.90;3.13;;;33.80;70.60;;;;;;4805133;29;20096;-91
2021/06/09 14:15:21;;;;;;;8.32;4.47;;;34.30;68.40;;;;;;4802970;29;20050;-91
2021/06/09 14:17:48;;;;;;;6.35;3.85;;;34.30;66.70;;;;;;4803474;29;20051;-91
2021/06/09 14:20:20;;;;;;;3.83;3.20;;;33.80;66.60;;;;;;4818983;29;20051;-93
2021/06/09 14:22:52;;;;;;;4.10;3.78;;;34.00;71.00;;;;;;4804816;29;20049;-91
2021/06/09 14:25:24;;;;;;;4.72;4.32;;;34.40;69.20;;;;;;4802732;29;20066;-91
2021/06/09 14:28:02;;;;;;;19.40;3.97;;;33.80;64.00;;;;;;4804214;29;20128;-91
2021/06/09 14:30:41;;;;;;;6.18;3.88;;;33.30;68.60;;;;;;4794320;29;20111;-90
2021/06/09 14:35:59;;;;;;;15.75;4.00;;;31.00;74.80;;;;;;4804594;29;20053;-92
2021/06/09 14:38:35;;;;;;;5.80;2.10;;;30.10;86.50;;;;;;4803197;29;20058;-91
2021/06/09 14:41:14;;;;;;;6.13;2.33;;;29.50;87.90;;;;;;4789215;29;20058;-92
2021/06/09 14:44:17;;;;;;;6.38;2.97;;;28.80;90.60;;;;;;4813074;29;20043;-91
2021/06/09 14:46:56;;;;;;;6.80;3.20;;;28.00;91.60;;;;;;4801774;29;20043;-92
2021/06/09 14:49:52;;;;;;;6.00;3.03;;;27.50;93.90;;;;;;4803827;29;20126;-91
2021/06/09 14:52:35;;;;;;;7.13;2.97;;;27.50;95.40;;;;;;4817251;29;20082;-92
2021/06/09 14:55:29;;;;;;;3.67;3.22;;;27.20;96.40;;;;;;4813096;29;20051;-95
2021/06/09 14:58:20;;;;;;;6.30;3.08;;;27.10;96.10;;;;;;4789126;29;20289;-93
2021/06/09 15:01:09;;;;;;;;;;;;;;;;;;;;;
2021/06/09 15:03:36;;;;;;;4.43;3.22;;;26.50;96.60;;;;;;4803164;29;20119;-92
2021/06/09 15:06:09;;;;;;;6.53;3.72;;;26.50;96.80;;;;;;4801433;29;20085;-90
2021/06/09 15:08:38;;;;;;;4.85;4.10;;;26.70;97.00;;;;;;4801866;29;20481;-91
2021/06/09 15:11:09;;;;;;;6.53;4.32;;;26.80;95.50;;;;;;4790749;29;20051;-94
2021/06/09 15:13:37;;;;;;;7.47;4.45;;;26.80;95.40;;;;;;4787371;29;20169;-93
2021/06/09 15:16:05;;;;;;;5.78;4.43;;;26.80;95.00;;;;;;4787967;29;20051;-92
2021/06/09 15:18:33;;;;;;;5.53;4.28;;;26.70;95.40;;;;;;4802324;29;20138;-94
2021/06/09 15:21:11;;;;;;;5.25;4.80;;;26.70;95.90;;;;;;4775900;29;20108;-92
2021/06/09 15:23:38;;;;;;;6.18;4.93;;;26.40;96.00;;;;;;4803227;29;20043;-92
2021/06/09 15:26:09;;;;;;;8.57;4.47;;;26.20;95.70;;;;;;4802614;29;20054;-91
2021/06/09 15:28:35;;;;;;;5.90;5.40;;;25.90;96.10;;;;;;4796392;29;20039;-93
2021/06/09 15:31:02;;;;;;;6.13;5.30;;;25.80;96.40;;;;;;4802384;29;20050;-93
2021/06/09 15:33:28;;;;;;;12.88;6.72;;;25.90;96.60;;;;;;4802237;29;20053;-93
2021/06/09 15:35:54;;;;;;;9.38;7.18;;;25.80;97.00;;;;;;4802309;29;20084;-94
2021/06/09 15:38:20;;;;;;;8.75;7.75;;;25.60;96.10;;;;;;4802355;29;20043;-92
2021/06/09 15:40:46;;;;;;;10.00;8.00;;;25.30;96.90;;;;;;4802532;29;20053;-94
2021/06/09 15:43:12;;;;;;;13.85;8.98;;;25.10;97.00;;;;;;4803707;29;20079;-93
2021/06/09 15:45:38;;;;;;;18.42;8.55;;;25.00;96.60;;;;;;4772553;29;20071;-90
2021/06/09 15:48:05;;;;;;;12.00;10.30;;;24.80;97.90;;;;;;4817740;29;20581;-93
2021/06/09 15:50:32;;;;;;;11.60;9.85;;;24.80;98.60;;;;;;4801889;29;20496;-92
2021/06/09 15:52:58;;;;;;;13.50;10.07;;;24.60;98.50;;;;;;4802446;29;20043;-93
2021/06/09 15:55:24;;;;;;;10.57;9.32;;;24.60;98.40;;;;;;4802118;29;20051;-92
2021/06/09 15:57:53;;;;;;;9.90;8.90;;;24.70;98.80;;;;;;4803681;29;20515;-94
2021/06/09 16:00:20;;;;;;;13.63;9.35;;;24.70;98.50;;;;;;4802306;29;20064;-93
2021/06/09 16:02:47;;;;;;;7.88;6.75;;;24.50;99.40;;;;;;4772760;29;20051;-92
2021/06/09 16:05:14;;;;;;;14.38;7.78;;;24.70;99.30;;;;;;4801982;29;20074;-94
2021/06/09 16:07:41;;;;;;;9.50;7.30;;;25.00;98.70;;;;;;4784850;29;20047;-93
2021/06/09 16:10:08;;;;;;;13.20;8.00;;;25.10;99.90;;;;;;4787059;29;20066;-92
2021/06/09 16:12:34;;;;;;;13.20;9.48;;;25.30;98.60;;;;;;4801837;29;20058;-93
2021/06/09 16:15:00;;;;;;;7.40;6.65;;;25.40;97.80;;;;;;4794221;29;20074;-92
2021/06/09 16:17:26;;;;;;;10.15;8.55;;;25.40;99.20;;;;;;4805823;29;20071;-95
2021/06/09 16:19:52;;;;;;;13.80;8.18;;;25.50;96.50;;;;;;4785759;29;20094;-93
2021/06/09 16:22:18;;;;;;;11.02;7.00;;;25.40;97.20;;;;;;4818561;29;20086;-93
2021/06/09 16:24:45;;;;;;;12.70;7.93;;;25.20;97.90;;;;;;4802515;29;20133;-92
2021/06/09 16:27:11;;;;;;;14.50;8.35;;;25.40;97.00;;;;;;4788422;29;20083;-94
2021/06/09 16:29:38;;;;;;;10.55;8.50;;;25.10;97.50;;;;;;4784664;29;20564;-93
2021/06/09 16:32:07;;;;;;;9.32;7.93;;;25.20;98.90;;;;;;4790901;29;20462;-93
2021/06/09 16:34:36;;;;;;;9.02;7.82;;;25.30;97.20;;;;;;4791190;29;20436;-93
2021/06/09 16:37:02;;;;;;;14.27;8.90;;;25.10;98.30;;;;;;4806434;29;20059;-94
2021/06/09 16:39:27;;;;;;;10.07;7.95;;;25.00;94.30;;;;;;4806620;29;20126;-93
2021/06/09 16:41:53;;;;;;;16.95;8.05;;;25.00;93.10;;;;;;4821404;29;20047;-92
2021/06/09 16:44:19;;;;;;;10.32;7.45;;;24.80;95.30;;;;;;4791840;29;20544;-93
2021/06/09 16:46:46;;;;;;;10.80;7.28;;;24.80;95.90;;;;;;4806090;29;20051;-93
2021/06/09 16:49:13;;;;;;;9.43;7.53;;;24.70;94.40;;;;;;4806500;29;20496;-93
2021/06/09 16:51:39;;;;;;;9.55;7.05;;;24.70;95.50;;;;;;4807287;29;20058;-92
2021/06/09 16:54:24;;;;;;;8.27;6.10;;;24.60;95.00;;;;;;4807406;29;20047;-93
2021/06/09 16:59:29;;;;;;;11.88;7.15;;;25.00;96.60;;;;;;4806340;29;20057;-92
2021/06/09 17:01:55;;;;;;;9.65;6.50;;;25.30;95.60;;;;;;4806391;29;20051;-93
2021/06/09 17:04:23;;;;;;;9.40;7.13;;;25.30;95.70;;;;;;4806469;29;20055;-93
2021/06/09 17:06:49;;;;;;;8.02;6.55;;;25.40;94.70;;;;;;4805541;29;20062;-93
2021/06/09 17:09:17;;;;;;;6.85;5.97;;;25.40;93.50;;;;;;4791081;29;20047;-94
2021/06/09 17:11:44;;;;;;;9.45;6.40;;;25.40;94.00;;;;;;4790807;29;20066;-93
2021/06/09 17:14:11;;;;;;;6.18;5.38;;;25.20;93.00;;;;;;4805982;29;20098;-94
2021/06/09 17:16:40;;;;;;;9.82;6.05;;;25.90;93.20;;;;;;4790931;29;20059;-94
2021/06/09 17:19:06;;;;;;;;;;;26.30;92.50;;;;;;4806110;29;20415;-94
2021/06/09 17:21:32;;;;;;;6.55;5.78;;;26.30;90.50;;;;;;4805779;29;19925;-94
2021/06/09 17:23:58;;;;;;;7.22;5.70;;;26.00;91.20;;;;;;4807234;29;20054;-93
2021/06/09 17:26:25;;;;;;;5.78;5.28;;;25.90;91.10;;;;;;4806157;29;20135;-93
2021/06/09 17:28:51;;;;;;;7.05;5.75;;;25.60;89.80;;;;;;4805420;29;20203;-93
2021/06/09 17:31:17;;;;;;;8.25;5.38;;;25.20;90.30;;;;;;4776093;29;20424;-94
2021/06/09 17:33:43;;;;;;;12.32;5.30;;;25.30;91.90;;;;;;4805667;29;20058;-94
2021/06/09 17:36:10;;;;;;;7.22;5.35;;;25.70;91.40;;;;;;4807071;29;20057;-94
2021/06/09 17:38:37;;;;;;;7.68;5.30;;;26.00;91.00;;;;;;4790268;29;20105;-94
2021/06/09 17:41:04;;;;;;;6.28;5.20;;;25.90;91.10;;;;;;4806176;29;20077;-94
2021/06/09 17:43:30;;;;;;;8.35;6.07;;;25.70;90.10;;;;;;4805537;29;20050;-95
2021/06/09 17:45:56;;;;;;;7.22;5.97;;;25.30;90.10;;;;;;4805412;29;20151;-94
2021/06/09 17:48:22;;;;;;;10.35;5.95;;;25.00;91.70;;;;;;4805526;29;20627;-94
2021/06/09 17:50:52;;;;;;;10.20;6.43;;;24.80;93.30;;;;;;4790565;29;20047;-94
2021/06/09 17:53:22;;;;;;;8.63;5.97;;;24.60;94.70;;;;;;4805497;29;20059;-95
2021/06/09 17:55:49;;;;;;;7.10;6.40;;;24.50;93.20;;;;;;4805420;29;20192;-94
2021/06/09 17:58:16;;;;;;;6.93;6.20;;;24.40;93.00;;;;;;4805538;29;20051;-94
2021/06/09 18:00:50;;;;;;;8.18;6.10;;;24.20;94.00;;;;;;4805400;29;20051;-94
2021/06/09 18:03:18;;;;;;;11.30;6.22;;;24.00;95.70;;;;;;4772748;29;20043;-94
2021/06/09 18:05:50;;;;;;;7.70;5.70;;;23.90;96.10;;;;;;4807730;29;20389;-94
2021/06/09 18:08:20;;;;;;;7.07;6.05;;;24.10;97.40;;;;;;4806458;29;20073;-94
2021/06/09 18:10:47;;;;;;;7.50;5.20;;;24.30;95.00;;;;;;4789500;29;20496;-94
2021/06/09 18:13:14;;;;;;;5.55;5.00;;;24.50;95.40;;;;;;4820795;29;20047;-94
2021/06/09 18:15:40;;;;;;;6.28;5.68;;;24.80;94.50;;;;;;4790193;29;20059;-95
2021/06/09 18:18:07;;;;;;;8.32;4.97;;;24.80;94.30;;;;;;4806114;29;20050;-94
2021/06/09 18:20:34;;;;;;;6.70;5.78;;;24.50;95.10;;;;;;4804874;29;20470;-95
2021/06/09 18:23:02;;;;;;;12.00;5.43;;;24.30;96.10;;;;;;4805695;29;20484;-95
2021/06/09 18:25:29;;;;;;;9.38;5.38;;;24.30;96.50;;;;;;4796402;29;20146;-94
2021/06/09 18:27:56;;;;;;;8.60;5.30;;;24.40;95.90;;;;;;4804983;29;20441;-95
2021/06/09 18:30:22;;;;;;;7.28;5.43;;;24.20;96.30;;;;;;4785889;30;20051;-95
2021/06/09 18:32:52;;;;;;;11.75;6.43;;;24.00;96.40;;;;;;4800404;29;20397;-96
2021/06/09 18:35:20;;;;;;;7.70;6.05;;;23.80;97.30;;;;;;4806742;29;20062;-94
2021/06/09 18:37:47;;;;;;;6.60;5.75;;;23.60;97.80;;;;;;4804789;29;20126;-94
2021/06/09 18:40:13;;;;;;;8.02;6.53;;;23.40;98.50;;;;;;4816732;29;20055;-96
2021/06/09 18:42:39;;;;;;;9.60;7.40;;;23.10;99.40;;;;;;4804757;29;20047;-94
2021/06/09 18:45:07;;;;;;;7.93;6.15;;;23.10;99.60;;;;;;4806076;29;20047;-94
2021/06/09 18:47:33;;;;;;;7.53;6.53;;;22.90;99.90;;;;;;4805135;29;20054;-94
2021/06/09 18:49:59;;;;;;;9.73;6.50;;;22.90;99.90;;;;;;4805397;29;20050;-94
2021/06/09 18:52:25;;;;;;;7.70;7.00;;;22.80;99.90;;;;;;4805117;29;20122;-95
2021/06/09 18:54:55;;;;;;;7.07;6.43;;;22.80;99.90;;;;;;4803850;29;20046;-95
2021/06/09 18:57:22;;;;;;;7.15;6.45;;;22.80;99.90;;;;;;4805629;29;20528;-94
2021/06/09 18:59:49;;;;;;;7.70;6.70;;;22.80;99.90;;;;;;4789678;29;20482;-94
2021/06/09 19:02:16;;;;;;;9.18;6.32;;;22.80;99.90;;;;;;4805778;29;20081;-94
2021/06/09 19:04:44;;;;;;;8.68;6.40;;;22.80;99.90;;;;;;4789439;29;20046;-94
2021/06/09 19:07:10;;;;;;;10.30;6.22;;;22.80;99.90;;;;;;4804973;29;20058;-95
2021/06/09 19:09:37;;;;;;;6.40;5.80;;;22.80;99.90;;;;;;4791763;29;20152;-95
2021/06/09 19:12:07;;;;;;;8.98;5.70;;;22.90;99.90;;;;;;4799934;29;20138;-96
2021/06/09 19:14:37;;;;;;;7.95;5.57;;;23.10;99.90;;;;;;4806107;29;20051;-96
2021/06/09 19:17:08;;;;;;;6.13;4.70;;;23.10;99.90;;;;;;4805569;29;20051;-96
2021/06/09 19:19:37;;;;;;;7.28;6.13;;;23.20;99.90;;;;;;4789989;29;20058;-96
2021/06/09 19:22:04;;;;;;;6.45;5.82;;;23.30;99.90;;;;;;4775435;29;20058;-95
2021/06/09 19:24:32;;;;;;;7.90;5.65;;;23.20;99.90;;;;;;4789902;29;20148;-96
2021/06/09 19:27:07;;;;;;;6.40;5.20;;;23.00;99.90;;;;;;4789876;29;20070;-96
2021/06/09 19:29:34;;;;;;;7.70;5.40;;;22.90;99.90;;;;;;4817138;29;20058;-96
2021/06/09 19:32:00;;;;;;;9.27;5.85;;;22.90;99.90;;;;;;4773994;29;20062;-96
2021/06/09 19:34:26;;;;;;;6.00;5.38;;;22.70;99.90;;;;;;4782635;29;20048;-95
2021/06/09 19:36:53;;;;;;;6.50;4.55;;;22.40;99.90;;;;;;4789656;29;20472;-96
2021/06/09 19:39:20;;;;;;;5.38;4.88;;;22.30;99.90;;;;;;4787601;29;20058;-95
2021/06/09 19:41:53;;;;;;;4.80;4.18;;;22.30;99.90;;;;;;4788315;29;20535;-96
2021/06/09 19:44:19;;;;;;;6.10;5.30;;;22.20;99.90;;;;;;4791589;29;20058;-96
2021/06/09 19:46:45;;;;;;;12.32;6.47;;;22.00;99.90;;;;;;4788847;29;20069;-96